Time;durP1;ratioP1;P1;durP2;ratioP2;P2;SDS_P1;SDS_P2;PMS_P1;PMS_P2;Temp;Humidity;BMP_temperature;BMP_pressure;BME280_temperature;BME280_humidity;BME280_pressure;Samples;Min_cycle;Max_cycle;Signal;HPM_P1;HPM_P2
2022/03/05 00:00:31;;;;;;;;;;;1.10;56.40;;;-0.58;50.16;96189.66;4972114;28;19933;-64
2022/03/05 00:02:57;;;;;;;;;;;1.20;56.30;;;-0.60;50.18;96191.53;4977319;28;20013;-65
2022/03/05 00:05:23;;;;;;;;;;;1.10;56.60;;;-0.64;49.57;96181.44;4996533;28;20385;-65
2022/03/05 00:07:49;;;;;;;;;;;1.10;56.50;;;-0.68;50.16;96180.03;4993439;28;20025;-65
2022/03/05 00:10:14;;;;;;;;;;;1.10;56.60;;;-0.68;50.22;96182.63;4995284;28;20400;-65
2022/03/05 00:12:40;;;;;;;;;;;1.10;56.60;;;-0.68;49.72;96180.03;4973454;28;19929;-65
2022/03/05 00:15:06;;;;;;;;;;;1.10;56.40;;;-0.71;50.18;96182.00;4972361;28;19922;-64
2022/03/05 00:17:32;;;;;;;;;;;1.10;56.50;;;-0.71;50.28;96190.59;5004153;28;20071;-64
2022/03/05 00:19:58;;;;;;;;;;;1.10;56.80;;;-0.75;50.36;96180.63;4965404;28;19970;-65
2022/03/05 00:22:23;;;;;;;;;;;1.00;56.90;;;-0.81;50.56;96181.91;4995724;28;19925;-64
2022/03/05 00:24:49;;;;;;;;;;;1.00;57.10;;;-0.84;50.67;96182.16;4984929;28;19922;-65
2022/03/05 00:27:16;;;;;;;;;;;0.90;57.20;;;-0.86;50.86;96184.03;4993955;28;21626;-64
2022/03/05 00:29:42;;;;;;;;;;;1.00;57.20;;;-0.86;50.47;96186.59;4986168;28;20305;-64
2022/03/05 00:32:07;;;;;;;;;;;0.90;57.30;;;-0.89;51.55;96186.84;4989426;28;19922;-64
2022/03/05 00:34:33;;;;;;;;;;;0.90;57.50;;;-0.93;51.11;96190.56;4990232;28;19930;-64
2022/03/05 00:36:59;;;;;;;;;;;0.90;57.70;;;-0.93;51.41;96190.56;4972904;28;19932;-64
2022/03/05 00:39:24;;;;;;;;;;;0.90;57.90;;;-0.95;51.89;96192.44;4995221;28;19977;-65
2022/03/05 00:41:50;;;;;;;;;;;0.90;58.00;;;-0.98;52.10;96187.53;4952385;28;20382;-65
2022/03/05 00:44:16;;;;;;;;;;;0.90;58.00;;;-1.00;51.84;96189.41;4987671;28;19922;-64
2022/03/05 00:46:42;;;;;;;;;;;0.80;58.10;;;-1.02;51.96;96191.28;4981620;28;19922;-65
2022/03/05 00:49:08;;;;;;;;;;;0.80;58.20;;;-1.03;51.91;96185.28;4989159;28;19926;-65
2022/03/05 00:51:33;;;;;;;;;;;0.80;58.30;;;-1.03;51.38;96193.03;4981714;28;19945;-67
2022/03/05 00:53:59;;;;;;;;;;;0.80;58.50;;;-1.04;52.39;96185.41;4987420;28;20009;-64
2022/03/05 00:56:25;;;;;;;;;;;0.80;58.50;;;-1.04;51.73;96182.84;4969500;28;19926;-65
2022/03/05 00:58:50;;;;;;;;;;;0.80;58.80;;;-1.10;52.30;96175.56;4986200;28;19925;-64
2022/03/05 01:01:16;;;;;;;;;;;0.70;58.90;;;-1.11;52.53;96176.50;4989045;28;19921;-64
2022/03/05 01:03:43;;;;;;;;;;;0.70;59.30;;;-1.13;52.53;96174.03;4956933;28;19932;-64
2022/03/05 01:06:08;;;;;;;;;;;0.60;59.50;;;-1.17;52.80;96177.75;4979677;28;19969;-64
2022/03/05 01:08:34;;;;;;;;;;;0.60;59.50;;;-1.17;52.51;96182.09;4988714;28;19936;-64
2022/03/05 01:11:00;;;;;;;;;;;0.60;59.40;;;-1.24;53.04;96181.75;4971324;28;20080;-64
2022/03/05 01:13:26;;;;;;;;;;;0.60;59.40;;;-1.26;52.68;96181.84;4992979;28;20334;-65
2022/03/05 01:15:51;;;;;;;;;;;0.60;59.60;;;-1.28;52.91;96181.16;4963283;28;19933;-65
2022/03/05 01:18:17;;;;;;;;;;;0.60;59.50;;;-1.28;52.96;96181.16;5002773;28;19984;-65
2022/03/05 01:20:43;;;;;;;;;;;0.60;59.70;;;-1.30;53.17;96177.88;4974401;28;19925;-64
2022/03/05 01:23:08;;;;;;;;;;;0.60;59.90;;;-1.32;53.16;96179.75;4989814;28;20292;-64
2022/03/05 01:25:34;;;;;;;;;;;0.50;60.00;;;-1.35;53.81;96190.28;4985986;28;19975;-66
2022/03/05 01:28:00;;;;;;;;;;;0.50;59.80;;;-1.37;53.01;96183.56;4968179;28;19937;-64
2022/03/05 01:30:25;;;;;;;;;;;0.50;59.90;;;-1.37;53.62;96176.66;4962081;28;19930;-64
2022/03/05 01:32:51;;;;;;;;;;;0.50;60.10;;;-1.38;53.45;96175.00;4996656;28;19932;-64
2022/03/05 01:35:18;;;;;;;;;;;0.50;60.20;;;-1.38;53.51;96175.00;4968666;28;19930;-64
2022/03/05 01:37:44;;;;;;;;;;;0.50;60.00;;;-1.38;53.21;96179.34;4982176;28;19922;-65
2022/03/05 01:40:10;;;;;;;;;;;0.50;60.00;;;-1.40;53.23;96170.91;4977249;28;20300;-65
2022/03/05 01:42:35;;;;;;;;;;;0.50;60.00;;;-1.42;53.49;96176.19;4986830;28;20456;-65
2022/03/05 01:45:01;;;;;;;;;;;0.40;60.20;;;-1.46;54.26;96176.53;4982512;28;19925;-64
2022/03/05 01:47:27;;;;;;;;;;;0.40;60.40;;;-1.46;53.88;96174.78;4979429;28;20311;-65
2022/03/05 01:49:53;;;;;;;;;;;0.40;60.50;;;-1.50;54.22;96169.97;4975408;28;19939;-64
2022/03/05 01:52:18;;;;;;;;;;;0.40;60.50;;;-1.51;53.60;96168.31;4988083;28;19922;-64
2022/03/05 01:54:44;;;;;;;;;;;0.40;60.70;;;-1.53;54.29;96168.44;4992998;28;19921;-65
2022/03/05 01:57:13;;;;;;;;;;;0.40;60.80;;;-1.56;54.32;96172.06;4991654;28;19922;-65
2022/03/05 01:59:38;;;;;;;;;;;0.30;60.90;;;-1.57;54.20;96180.75;4980605;28;19924;-64
2022/03/05 02:02:04;;;;;;;;;;;0.30;61.20;;;-1.55;54.46;96172.88;4968418;28;19922;-64
2022/03/05 02:04:31;;;;;;;;;;;0.40;61.20;;;-1.57;54.17;96169.59;5012218;23;20226;-69
2022/03/05 02:06:56;;;;;;;;;;;0.30;61.10;;;-1.59;54.46;96166.28;4981034;28;20320;-67
2022/03/05 02:09:22;;;;;;;;;;;0.30;61.50;;;-1.60;54.70;96169.78;5003432;28;19930;-68
2022/03/05 02:11:48;;;;;;;;;;;0.30;61.30;;;-1.61;54.49;96161.25;5007959;28;19955;-68
2022/03/05 02:14:17;;;;;;;;;;;0.30;61.20;;;-1.63;54.91;96164.88;5011168;28;20063;-69
2022/03/05 02:16:43;;;;;;;;;;;0.20;61.20;;;-1.66;54.52;96165.91;5009199;28;19922;-67
2022/03/05 02:19:09;;;;;;;;;;;0.30;61.20;;;-1.67;55.23;96168.59;4978989;28;20317;-67
2022/03/05 02:21:36;;;;;;;;;;;0.20;61.70;;;-1.68;54.90;96167.78;5003562;28;19922;-67
2022/03/05 02:24:01;;;;;;;;;;;0.20;61.50;;;-1.70;55.45;96163.69;5002403;28;19929;-68
2022/03/05 02:26:27;;;;;;;;;;;0.20;61.70;;;-1.71;54.11;96170.59;5010366;28;20246;-68
2022/03/05 02:28:53;;;;;;;;;;;0.20;61.70;;;-1.74;55.19;96160.50;5013621;28;20431;-68
2022/03/05 02:31:18;;;;;;;;;;;0.10;62.00;;;-1.73;55.12;96163.91;5008846;28;19972;-68
2022/03/05 02:33:45;;;;;;;;;;;0.10;61.90;;;-1.78;54.93;96160.84;4992979;28;19922;-69
2022/03/05 02:36:10;;;;;;;;;;;0.10;62.20;;;-1.81;55.67;96146.44;4994231;28;19995;-68
2022/03/05 02:38:36;;;;;;;;;;;0.10;62.50;;;-1.80;55.83;96147.25;5006940;28;20008;-69
2022/03/05 02:41:02;;;;;;;;;;;0.10;62.40;;;-1.83;55.53;96143.13;5002987;28;19933;-68
2022/03/05 02:43:28;;;;;;;;;;;0.10;62.50;;;-1.88;56.48;96140.88;4992028;28;19969;-68
2022/03/05 02:45:54;;;;;;;;;;;0.00;62.80;;;-1.88;56.16;96140.88;5011197;28;20032;-68
2022/03/05 02:48:20;;;;;;;;;;;0.10;62.70;;;-1.90;56.12;96141.94;5008121;28;19921;-67
2022/03/05 02:50:46;;;;;;;;;;;0.00;62.90;;;-1.92;56.44;96139.47;5013177;28;19930;-67
2022/03/05 02:53:11;;;;;;;;;;;0.00;63.10;;;-1.93;57.05;96135.25;5002221;28;19921;-67
2022/03/05 02:55:37;;;;;;;;;;;0.00;63.30;;;-1.91;56.42;96135.94;4995884;28;19928;-67
2022/03/05 02:58:03;;;;;;;;;;;0.00;63.30;;;-1.90;56.58;96131.63;4980082;28;19933;-66
2022/03/05 03:00:29;;;;;;;;;;;0.00;63.30;;;-1.91;56.48;96130.78;4991875;28;19921;-67
2022/03/05 03:02:54;;;;;;;;;;;0.00;63.30;;;-1.91;56.65;96125.63;4997119;28;19921;-67
2022/03/05 03:05:21;;;;;;;;;;;0.00;63.40;;;-1.92;56.70;96124.00;5015057;28;20443;-67
2022/03/05 03:07:47;;;;;;;;;;;0.00;63.40;;;-1.91;56.67;96138.53;4983423;28;19926;-67
2022/03/05 03:10:13;;;;;;;;;;;0.00;63.20;;;-1.93;56.52;96127.50;5009075;28;19944;-67
2022/03/05 03:12:39;;;;;;;;;;;0.00;63.40;;;-1.93;56.18;96126.69;4982435;28;19922;-67
2022/03/05 03:15:06;;;;;;;;;;;0.00;63.40;;;-1.95;56.78;96129.38;5016046;28;19934;-67
2022/03/05 03:18:07;;;;;;;;;;;0.00;63.40;;;-1.97;56.50;96131.25;4995306;28;20543;-67
2022/03/05 03:20:33;;;;;;;;;;;0.00;63.70;;;-2.00;56.94;96131.47;4994689;28;19929;-67
2022/03/05 03:22:58;;;;;;;;;;;0.00;63.80;;;-1.98;57.21;96132.19;4986806;28;20282;-67
2022/03/05 03:25:27;;;;;;;;;;;0.00;63.80;;;-1.97;57.48;96131.25;5013962;28;19925;-67
2022/03/05 03:27:53;;;;;;;;;;;0.00;64.00;;;-1.98;56.86;96137.34;5008592;28;19941;-67
2022/03/05 03:30:18;;;;;;;;;;;0.00;63.70;;;-1.97;57.20;96128.69;4995318;28;19937;-67
2022/03/05 03:32:44;;;;;;;;;;;0.00;63.60;;;-1.98;56.42;96139.91;5004399;28;19926;-67
2022/03/05 03:35:14;;;;;;;;;;;0.00;63.40;;;-1.98;56.98;96133.94;4998123;28;19961;-68
2022/03/05 03:37:40;;;;;;;;;;;0.00;63.50;;;-2.01;56.96;96129.84;5014631;28;20373;-67
2022/03/05 03:40:07;;;;;;;;;;;0.00;63.80;;;-2.03;56.99;96136.03;4985226;28;19925;-67
2022/03/05 03:42:33;;;;;;;;;;;0.00;63.80;;;-2.04;57.46;96134.38;4985023;28;20017;-67
2022/03/05 03:44:58;;;;;;;;;;;-3276.70;64.10;;;-2.05;56.84;96138.69;4977031;28;20399;-67
2022/03/05 03:47:24;;;;;;;;;;;0.00;63.80;;;-2.07;57.81;96148.28;5014292;28;20392;-67
2022/03/05 03:49:50;;;;;;;;;;;-3276.70;63.90;;;-2.09;57.25;96134.69;4996381;28;19929;-68
2022/03/05 03:52:16;;;;;;;;;;;-3276.70;64.10;;;-2.10;58.11;96140.78;5010045;28;19981;-68
2022/03/05 03:54:42;;;;;;;;;;;-3276.70;64.10;;;-2.11;57.47;96138.31;5011201;28;19932;-68
2022/03/05 03:57:08;;;;;;;;;;;-3276.60;64.60;;;-2.13;57.73;96135.03;5017390;28;20645;-68
2022/03/05 03:59:34;;;;;;;;;;;-3276.70;64.80;;;-2.16;57.89;96142.06;5001900;28;19925;-67
2022/03/05 04:02:01;;;;;;;;;;;-3276.60;65.50;;;-2.19;58.04;96141.47;5016437;28;20307;-67
2022/03/05 04:04:29;;;;;;;;;;;-3276.60;65.40;;;-2.22;58.66;96149.41;5014809;28;19928;-68
2022/03/05 04:09:39;;;;;;;;;;;-3276.60;65.30;;;-2.24;58.90;96143.56;5016326;28;20422;-67
2022/03/05 04:12:05;;;;;;;;;;;-3276.60;65.60;;;-2.26;58.90;96153.16;5002043;28;19925;-67
2022/03/05 04:14:30;;;;;;;;;;;-3276.60;65.70;;;-2.29;58.67;96148.19;5008461;28;20263;-67
2022/03/05 04:16:56;;;;;;;;;;;-3276.50;65.90;;;-2.30;59.33;96165.41;5007492;28;20000;-68
2022/03/05 04:19:22;;;;;;;;;;;-3276.50;66.10;;;-2.31;59.01;96152.63;5017228;28;19928;-68
2022/03/05 04:21:47;;;;;;;;;;;-3276.50;66.10;;;-2.33;59.49;96159.63;5006705;28;19925;-67
2022/03/05 04:24:13;;;;;;;;;;;-3276.50;66.40;;;-2.34;59.55;96158.00;5020531;28;20349;-67
2022/03/05 04:26:39;;;;;;;;;;;-3276.50;66.70;;;-2.35;59.24;96156.34;4997209;28;19979;-67
2022/03/05 04:29:04;;;;;;;;;;;-3276.50;66.70;;;-2.38;59.71;96159.97;5015865;28;19925;-69
2022/03/05 04:31:30;;;;;;;;;;;-3276.50;66.80;;;-2.41;59.70;96160.19;4990200;28;20330;-70
2022/03/05 04:33:56;;;;;;;;;;;-3276.40;67.10;;;-2.41;60.04;96152.47;5008542;28;19936;-70
2022/03/05 04:36:25;;;;;;;;;;;-3276.40;67.30;;;-2.43;60.68;96150.94;5009088;28;19925;-68
2022/03/05 04:38:50;;;;;;;;;;;-3276.40;67.30;;;-2.46;59.68;96154.56;4997859;28;20362;-70
2022/03/05 04:41:16;;;;;;;;;;;-3276.30;67.40;;;-2.50;60.21;96156.50;5008889;28;19925;-71
2022/03/05 04:43:41;;;;;;;;;;;-3276.30;67.70;;;-2.51;60.45;96157.41;5004307;28;20264;-68
2022/03/05 04:46:07;;;;;;;;;;;-3276.30;67.60;;;-2.52;61.15;96160.94;5007702;28;19925;-68
2022/03/05 04:48:33;;;;;;;;;;;-3276.30;67.80;;;-2.55;60.12;96160.31;5009368;28;19921;-68
2022/03/05 04:50:59;;;;;;;;;;;-3276.20;67.90;;;-2.55;60.85;96161.16;5010463;28;20399;-68
2022/03/05 04:53:24;;;;;;;;;;;-3276.30;68.20;;;-2.54;60.43;96157.63;5010597;28;19964;-68
2022/03/05 04:55:50;;;;;;;;;;;-3276.30;68.00;;;-2.54;60.63;96159.41;5008672;28;19925;-68
2022/03/05 04:58:16;;;;;;;;;;;-3276.30;68.10;;;-2.55;61.18;96160.31;4989684;28;19928;-68
2022/03/05 05:00:42;;;;;;;;;;;-3276.30;68.20;;;-2.54;60.88;96172.28;4973800;28;19922;-68
2022/03/05 05:03:08;;;;;;;;;;;-3276.30;68.20;;;-2.55;60.74;96162.91;4998865;28;19924;-68
2022/03/05 05:05:33;;;;;;;;;;;-3276.30;68.20;;;-2.56;61.36;96161.25;5003547;28;19921;-68
2022/03/05 05:07:59;;;;;;;;;;;-3276.30;68.20;;;-2.59;61.73;96164.06;4998575;28;19925;-68
2022/03/05 05:10:25;;;;;;;;;;;-3276.30;68.40;;;-2.60;61.26;96167.56;4972900;28;19926;-68
2022/03/05 05:12:50;;;;;;;;;;;-3276.30;68.40;;;-2.64;61.26;96169.53;4991726;28;19922;-68
2022/03/05 05:15:16;;;;;;;;;;;-3276.20;68.50;;;-2.65;61.55;96173.03;4958020;28;19925;-67
2022/03/05 05:17:42;;;;;;;;;;;-3276.20;68.80;;;-2.66;61.66;96168.81;4981557;28;19943;-68
2022/03/05 05:20:08;;;;;;;;;;;-3276.20;68.90;;;-2.67;61.58;96167.16;5008483;28;20392;-67
2022/03/05 05:22:35;;;;;;;;;;;-3276.20;68.90;;;-2.66;62.00;96166.25;5005286;28;20537;-67
2022/03/05 05:25:01;;;;;;;;;;;-3276.20;68.80;;;-2.70;61.72;96162.25;4987168;28;20012;-67
2022/03/05 05:27:26;;;;;;;;;;;-3276.10;68.90;;;-2.72;61.81;96169.22;4992544;28;20347;-67
2022/03/05 05:29:52;;;;;;;;;;;-3276.10;68.80;;;-2.71;62.09;96177.78;5005642;28;19922;-67
2022/03/05 05:32:18;;;;;;;;;;;-3276.20;69.00;;;-2.74;61.95;96178.78;5008676;28;19926;-72
2022/03/05 05:34:43;;;;;;;;;;;-3276.10;69.20;;;-2.75;61.96;96174.56;4979916;28;19928;-72
2022/03/05 05:37:09;;;;;;;;;;;-3276.10;69.50;;;-2.78;62.12;96179.94;4990054;28;19940;-70
2022/03/05 05:39:35;;;;;;;;;;;-3276.00;69.60;;;-2.80;62.17;96176.66;5010108;28;20074;-69
2022/03/05 05:42:01;;;;;;;;;;;-3276.00;69.60;;;-2.81;62.33;96180.16;4992300;28;19922;-70
2022/03/05 05:44:27;;;;;;;;;;;-3276.10;69.70;;;-2.81;63.01;96185.31;4975939;28;20039;-69
2022/03/05 05:46:52;;;;;;;;;;;-3276.10;69.70;;;-2.79;62.73;96183.44;5009818;28;19921;-69
2022/03/05 05:49:18;;;;;;;;;;;-3276.10;69.70;;;-2.81;62.52;96185.31;4992314;28;19922;-69
2022/03/05 05:51:44;;;;;;;;;;;-3276.10;69.70;;;-2.81;63.32;96183.56;4992076;28;20018;-69
2022/03/05 05:54:12;;;;;;;;;;;-3276.10;69.60;;;-2.81;62.75;96180.16;4991244;28;20415;-71
2022/03/05 05:56:38;;;;;;;;;;;-3276.10;69.80;;;-2.82;62.76;96184.47;4974150;28;19971;-68
2022/03/05 05:59:04;;;;;;;;;;;-3276.10;69.70;;;-2.86;63.23;96172.75;4992442;28;20341;-68
2022/03/05 06:01:30;;;;;;;;;;;-3276.10;70.00;;;-2.85;63.16;96182.13;4992639;28;20000;-69
2022/03/05 06:03:55;;;;;;;;;;;-3276.10;70.10;;;-2.84;63.00;96185.53;4991516;28;20008;-68
2022/03/05 06:06:21;;;;;;;;;;;-3276.10;70.10;;;-2.82;63.19;96183.66;4991805;28;19926;-68
2022/03/05 06:08:47;;;;;;;;;;;-3276.10;70.20;;;-2.82;64.19;96183.66;4992329;28;19925;-68
2022/03/05 06:11:13;;;;;;;;;;;-3276.10;70.10;;;-2.79;63.55;96186.03;5010077;28;19926;-68
2022/03/05 06:13:39;;;;;;;;;;;-3276.20;70.00;;;-2.78;63.24;96190.25;4992114;28;19924;-69
2022/03/05 06:16:05;;;;;;;;;;;-3276.20;70.00;;;-2.76;64.41;96190.94;4991348;28;20445;-68
2022/03/05 06:18:31;;;;;;;;;;;-3276.30;70.30;;;-2.75;64.12;96190.03;5011221;28;20419;-69
2022/03/05 06:20:57;;;;;;;;;;;-3276.30;70.20;;;-2.72;63.30;96194.97;4978817;28;20447;-68
2022/03/05 06:23:23;;;;;;;;;;;-3276.30;70.30;;;-2.70;63.94;96198.28;5014080;28;19917;-69
2022/03/05 06:25:50;;;;;;;;;;;-3276.40;70.20;;;-2.68;63.63;96193.84;5002498;28;19925;-69
2022/03/05 06:28:16;;;;;;;;;;;-3276.40;70.20;;;-2.65;63.99;96201.34;4992744;28;19928;-69
2022/03/05 06:30:42;;;;;;;;;;;-3276.40;70.30;;;-2.62;63.95;96201.13;5007305;28;19925;-69
2022/03/05 06:33:07;;;;;;;;;;;-3276.50;70.30;;;-2.57;64.07;96204.22;5011204;28;19972;-69
2022/03/05 06:35:33;;;;;;;;;;;-3276.50;70.20;;;-2.54;63.74;96201.41;5010493;28;19917;-69
2022/03/05 06:37:59;;;;;;;;;;;-3276.60;70.30;;;-2.47;64.84;96209.56;4995529;28;19937;-69
2022/03/05 06:40:24;;;;;;;;;;;-3276.60;70.10;;;-2.42;63.83;96206.66;5011959;28;20310;-70
2022/03/05 06:42:50;;;;;;;;;;;-3276.70;70.10;;;-2.36;63.85;96208.81;4996017;28;19975;-70
2022/03/05 06:45:16;;;;;;;;;;;0.00;70.00;;;-2.30;64.20;96208.38;5013274;28;19921;-70
2022/03/05 06:47:44;;;;;;;;;;;0.10;69.80;;;-2.23;64.57;96207.84;5013194;28;19980;-70
2022/03/05 06:50:10;;;;;;;;;;;0.20;69.60;;;-2.14;64.13;96208.94;4995938;28;19968;-69
2022/03/05 06:52:36;;;;;;;;;;;0.20;69.40;;;-2.06;63.66;96216.13;5012097;28;19968;-70
2022/03/05 06:55:03;;;;;;;;;;;0.40;69.00;;;-1.95;63.08;96214.44;5011364;28;19924;-69
2022/03/05 06:57:29;;;;;;;;;;;0.60;68.30;;;-1.82;63.02;96211.78;5006366;28;19940;-69
2022/03/05 06:59:55;;;;;;;;;;;0.70;67.70;;;-1.68;63.33;96214.22;4975547;28;20012;-68
2022/03/05 07:02:21;;;;;;;;;;;0.90;67.30;;;-1.53;62.95;96217.44;4992982;28;19925;-69
2022/03/05 07:04:46;;;;;;;;;;;1.10;66.50;;;-1.40;62.42;96219.94;4975770;28;20484;-70
2022/03/05 07:07:12;;;;;;;;;;;1.30;65.80;;;-1.27;62.34;96211.19;4992349;28;20024;-70
2022/03/05 07:09:38;;;;;;;;;;;1.50;65.40;;;-1.08;62.04;96217.56;4979409;28;20308;-71
2022/03/05 07:12:05;;;;;;;;;;;1.70;64.70;;;-0.92;61.25;96212.88;5010643;28;19926;-69
2022/03/05 07:14:31;;;;;;;;;;;1.90;63.70;;;-0.75;60.73;96217.59;5012682;28;20045;-70
2022/03/05 07:16:56;;;;;;;;;;;2.10;62.90;;;-0.60;59.39;96212.19;5011467;28;19929;-70
2022/03/05 07:19:22;;;;;;;;;;;2.20;62.00;;;-0.42;60.44;96231.47;5011422;28;19921;-70
2022/03/05 07:21:48;;;;;;;;;;;2.60;61.90;;;-0.24;59.32;96224.84;5012463;28;19928;-70
2022/03/05 07:24:14;;;;;;;;;;;2.80;60.90;;;-0.08;58.64;96227.06;4993974;28;20400;-69
2022/03/05 07:26:42;;;;;;;;;;;3.00;59.70;;;0.10;58.73;96222.22;5010720;28;19925;-72
2022/03/05 07:29:08;;;;;;;;;;;3.40;59.20;;;0.29;58.93;96217.22;5009430;28;19917;-68
2022/03/05 07:31:34;;;;;;;;;;;3.60;58.00;;;0.51;58.26;96222.31;4994018;28;20431;-68
2022/03/05 07:33:59;;;;;;;;;;;4.00;57.10;;;0.72;56.95;96218.94;4990862;28;19922;-69
2022/03/05 07:36:25;;;;;;;;;;;4.10;55.60;;;0.89;56.70;96208.81;5010682;28;19925;-70
2022/03/05 07:38:51;;;;;;;;;;;4.40;55.10;;;1.10;56.42;96213.97;4988312;28;19925;-67
2022/03/05 07:41:20;;;;;;;;;;;4.70;54.10;;;1.32;55.92;96212.19;4992212;28;19921;-69
2022/03/05 07:43:45;;;;;;;;;;;5.00;53.20;;;1.55;55.06;96205.88;4981016;28;19925;-69
2022/03/05 07:46:11;;;;;;;;;;;5.40;52.20;;;1.74;54.49;96205.94;5009761;28;19931;-70
2022/03/05 07:48:40;;;;;;;;;;;5.60;51.10;;;1.93;54.41;96209.56;5010418;28;19962;-68
2022/03/05 07:51:06;;;;;;;;;;;6.00;50.50;;;2.17;53.70;96209.19;5011027;28;19979;-68
2022/03/05 07:53:32;;;;;;;;;;;6.50;49.20;;;2.42;53.47;96219.88;5010517;28;19918;-70
2022/03/05 07:55:58;;;;;;;;;;;6.90;48.30;;;2.67;52.83;96209.88;4993106;28;19930;-71
2022/03/05 07:58:24;;;;;;;;;;;7.20;46.60;;;2.88;53.06;96207.97;5010678;28;19928;-69
2022/03/05 08:00:49;;;;;;;;;;;7.60;45.80;;;3.11;52.30;96207.66;5010680;28;19921;-68
2022/03/05 08:03:15;;;;;;;;;;;7.90;45.10;;;3.34;51.70;96206.34;5018452;28;19921;-69
2022/03/05 08:05:44;;;;;;;;;;;8.30;44.10;;;3.52;50.40;96209.88;5008785;28;20382;-68
2022/03/05 08:08:10;;;;;;;;;;;8.40;43.20;;;3.71;50.83;96213.34;4994316;28;20008;-68
2022/03/05 08:10:36;;;;;;;;;;;8.50;42.80;;;3.93;50.03;96213.78;5010181;28;20017;-70
2022/03/05 08:13:01;;;;;;;;;;;8.90;42.30;;;4.10;49.87;96209.59;4993193;28;19928;-68
2022/03/05 08:15:28;;;;;;;;;;;9.10;41.90;;;4.32;49.40;96210.97;5006092;28;19921;-70
2022/03/05 08:17:58;;;;;;;;;;;9.40;41.10;;;4.55;48.95;96211.34;4992510;28;20289;-69
2022/03/05 08:20:25;;;;;;;;;;;9.80;40.10;;;4.72;48.90;96209.69;5008775;28;20095;-69
2022/03/05 08:22:51;;;;;;;;;;;10.00;40.10;;;4.93;48.13;96207.59;5010874;28;19921;-69
2022/03/05 08:25:17;;;;;;;;;;;10.20;38.60;;;5.06;47.28;96204.59;4981064;28;19922;-69
2022/03/05 08:27:42;;;;;;;;;;;10.20;38.50;;;5.21;47.24;96216.94;4982131;28;19921;-68
2022/03/05 08:30:08;;;;;;;;;;;10.40;38.20;;;5.37;46.74;96205.78;5009622;28;19928;-70
2022/03/05 08:32:34;;;;;;;;;;;10.80;37.90;;;5.61;47.62;96212.09;5009730;28;19926;-70
2022/03/05 08:35:00;;;;;;;;;;;11.20;37.30;;;5.90;46.89;96212.63;4985384;28;19932;-72
2022/03/05 08:37:27;;;;;;;;;;;11.70;36.40;;;6.16;45.90;96201.28;4987665;28;20013;-70
2022/03/05 08:39:53;;;;;;;;;;;12.10;35.50;;;6.44;45.32;96200.84;4989126;28;19922;-70
2022/03/05 08:42:19;;;;;;;;;;;12.40;34.80;;;6.76;44.88;96205.28;4984051;28;19929;-70
2022/03/05 08:44:44;;;;;;;;;;;12.90;34.30;;;7.05;44.87;96199.59;4992952;28;19928;-70
2022/03/05 08:47:10;;;;;;;;;;;13.00;33.90;;;7.33;44.34;96197.44;4993634;28;19918;-70
2022/03/05 08:52:57;;;;;;;;;;;13.50;32.40;;;7.95;42.57;96205.44;5000047;28;20411;-72
2022/03/05 08:55:23;;;;;;;;;;;13.60;32.00;;;8.14;42.10;96200.75;5008396;28;19925;-70
2022/03/05 08:57:49;;;;;;;;;;;13.60;31.90;;;8.40;42.15;96201.31;5010354;28;20289;-70
2022/03/05 09:00:15;;;;;;;;;;;14.20;31.80;;;8.71;41.46;96203.91;5009976;28;19937;-70
2022/03/05 09:02:42;;;;;;;;;;;14.30;31.00;;;8.89;41.65;96201.00;5009817;28;19926;-71
2022/03/05 09:05:08;;;;;;;;;;;14.40;31.00;;;9.14;40.22;96194.56;5018719;28;19963;-69
2022/03/05 09:07:34;;;;;;;;;;;14.60;30.20;;;9.32;41.00;96196.03;4995836;28;20286;-68
2022/03/05 09:10:00;;;;;;;;;;;14.70;30.10;;;9.40;41.17;96194.16;5005921;28;19932;-69
2022/03/05 09:12:25;;;;;;;;;;;14.70;30.40;;;9.62;40.98;96192.44;5019822;28;20308;-68
2022/03/05 09:14:51;;;;;;;;;;;15.20;29.90;;;9.93;39.18;96191.44;5008573;28;19921;-68
2022/03/05 09:17:17;;;;;;;;;;;15.60;29.70;;;10.18;39.80;96190.13;5008565;28;19921;-68
2022/03/05 09:19:42;;;;;;;;;;;15.60;29.30;;;10.36;38.50;96185.31;4992313;28;19921;-68
2022/03/05 09:22:10;;;;;;;;;;;15.80;29.10;;;10.63;38.07;96190.88;5008631;28;19964;-69
2022/03/05 09:24:36;;;;;;;;;;;16.10;28.20;;;10.80;38.24;96180.91;4973992;28;19929;-70
2022/03/05 09:27:02;;;;;;;;;;;16.10;28.10;;;10.95;37.16;96184.31;5002120;28;19933;-68
2022/03/05 09:29:27;;;;;;;;;;;15.80;28.40;;;11.03;37.27;96177.09;5019611;28;19949;-67
2022/03/05 09:31:53;;;;;;;;;;;15.90;27.90;;;11.13;36.81;96183.88;4991880;28;19947;-68
2022/03/05 09:34:19;;;;;;;;;;;16.10;27.60;;;11.15;37.36;96189.75;5008145;28;19975;-68
2022/03/05 09:36:45;;;;;;;;;;;16.20;27.40;;;11.26;36.95;96186.59;4991396;28;19988;-69
2022/03/05 09:39:11;;;;;;;;;;;16.60;26.80;;;11.33;36.97;96184.84;5000777;28;19922;-68
2022/03/05 09:41:39;;;;;;;;;;;16.70;26.70;;;11.51;37.00;96185.16;5008448;28;20373;-68
2022/03/05 09:44:06;;;;;;;;;;;17.30;26.20;;;11.53;35.14;96177.88;5007803;28;20385;-68
2022/03/05 09:46:32;;;;;;;;;;;16.70;25.50;;;11.37;35.51;96190.53;4972035;28;19922;-68
2022/03/05 09:48:57;;;;;;;;;;;16.70;26.30;;;11.38;36.46;96187.69;5007820;28;20249;-68
2022/03/05 09:51:23;;;;;;;;;;;17.00;26.10;;;11.55;35.34;96177.69;4966989;28;20300;-68
2022/03/05 09:53:51;;;;;;;;;;;17.70;24.90;;;11.43;35.07;96182.66;5000548;28;19922;-68
2022/03/05 09:56:17;;;;;;;;;;;16.70;24.90;;;11.44;35.28;96179.03;4983686;28;20365;-70
2022/03/05 09:58:42;;;;;;;;;;;16.40;25.50;;;11.17;35.73;96177.22;4996880;28;19931;-69
2022/03/05 10:01:08;;;;;;;;;;;16.20;26.00;;;10.89;34.55;96179.81;5017650;28;20613;-69
2022/03/05 10:03:50;;;;;;;;;;;14.80;26.50;;;10.71;36.28;96183.69;4991835;28;19940;-69
2022/03/05 10:06:17;;;;;;;;;;;15.40;26.70;;;10.67;35.94;96181.63;4990955;28;19948;-70
2022/03/05 10:08:44;;;;;;;;;;;16.90;25.30;;;10.91;36.18;96178.63;4991512;28;19967;-68
2022/03/05 10:11:11;;;;;;;;;;;17.90;24.10;;;11.24;36.52;96175.44;4987221;28;19933;-68
2022/03/05 10:13:38;;;;;;;;;;;17.40;24.20;;;11.75;34.89;96169.88;5008259;28;19943;-67
2022/03/05 10:16:07;;;;;;;;;;;20.30;21.80;;;12.58;33.89;96166.19;5008005;28;20289;-68
2022/03/05 10:18:37;;;;;;;;;;;22.60;18.80;;;13.34;33.28;96169.34;4974827;28;20412;-68
2022/03/05 10:21:05;;;;;;;;;;;23.90;17.50;;;13.76;32.89;96165.41;5008372;28;20008;-68
2022/03/05 10:23:36;;;;;;;;;;;23.10;17.30;;;14.21;31.27;96169.97;4991636;28;20297;-68
2022/03/05 10:26:04;;;;;;;;;;;24.80;16.10;;;15.01;30.50;96157.94;5006991;28;19926;-68
2022/03/05 10:28:29;;;;;;;;;;;26.40;14.70;;;15.73;30.35;96171.63;4992013;28;19944;-68
2022/03/05 10:31:04;;;;;;;;;;;27.30;13.90;;;16.11;29.58;96172.25;5009492;28;20008;-68
2022/03/05 10:33:33;;;;;;;;;;;25.30;15.10;;;16.51;29.64;96163.78;4977406;28;19980;-67
2022/03/05 10:36:21;;;;;;;;;;;27.30;13.90;;;16.99;29.76;96166.44;5008923;28;20476;-67
2022/03/05 10:38:55;;;;;;;;;;;28.50;13.50;;;17.49;29.08;96155.41;5009060;28;20013;-68
2022/03/05 10:41:31;;;;;;;;;;;29.00;12.10;;;18.12;27.38;96160.03;4991937;28;20288;-68
2022/03/05 10:44:15;;;;;;;;;;;30.00;11.40;;;18.72;27.28;96154.28;5007461;28;19955;-68
2022/03/05 10:46:54;;;;;;;;;;;30.70;10.60;;;19.44;26.50;96141.09;5007876;28;19964;-68
2022/03/05 10:49:21;;;;;;;;;;;31.90;10.40;;;19.96;26.46;96146.16;5007555;28;19932;-67
2022/03/05 10:52:02;;;;;;;;;;;29.90;11.00;;;19.49;26.52;96154.53;5007605;28;19925;-67
2022/03/05 10:54:28;;;;;;;;;;;26.60;13.00;;;19.38;26.32;96142.09;5007238;28;20645;-67
2022/03/05 10:57:05;;;;;;;;;;;26.20;12.80;;;18.89;25.35;96146.34;4988358;28;20156;-67
2022/03/05 10:59:39;;;;;;;;;;;23.60;14.60;;;18.02;27.03;96149.97;4993138;28;19926;-69
2022/03/05 11:02:09;;;;;;;;;;;22.30;15.90;;;17.22;27.22;96148.91;5003718;28;19925;-66
2022/03/05 11:04:35;;;;;;;;;;;20.60;17.30;;;16.36;27.77;96166.84;4990259;28;19975;-66
2022/03/05 11:07:01;;;;;;;;;;;19.90;18.10;;;15.54;28.63;96158.31;4978743;28;20385;-66
2022/03/05 11:09:27;;;;;;;;;;;18.50;19.30;;;14.56;28.20;96152.75;5010781;28;19932;-66
2022/03/05 11:11:52;;;;;;;;;;;17.00;20.30;;;13.83;29.22;96157.50;5003423;28;19926;-66
2022/03/05 11:14:18;;;;;;;;;;;16.10;21.50;;;13.02;29.93;96154.28;4994434;28;19921;-66
2022/03/05 11:16:44;;;;;;;;;;;15.20;22.70;;;12.31;30.23;96167.16;4994509;28;20065;-66
2022/03/05 11:19:09;;;;;;;;;;;14.40;23.20;;;11.74;30.10;96168.25;5010679;28;19922;-66